Weather History for KD55 - May, 2014

Change the Weather History Date:

Saturday, May 24, 2014

  Actual Average (KDVL) Record (KDVL)
Temperature  
Mean Temperature 72 °F -  
Max Temperature 89 °F 67 °F 89 °F (1980)
Min Temperature 55 °F 46 °F 29 °F (1949)
Cooling Degree Days 7    
Growing Degree Days 22 (Base 50)    
Moisture  
Dew Point 54 °F    
Average Humidity 56    
Maximum Humidity 94    
Minimum Humidity 29    
Precipitation  
Precipitation 0.00 in - - ()
Sea Level Pressure  
Sea Level Pressure 29.89 in    
Wind  
Wind Speed 15 mph (SSW)    
Max Wind Speed 28 mph    
Max Gust Speed 37 mph    
Visibility 10 miles    
Events      
Averages and records for this station are not official NWS values.
T = Trace of Precipitation, MM = Missing Value Source: NWS Daily Summary

Daily Weather History Graph

Daily Weather History Graph

Search for Another Location

Airport or City:

Trip Planner

Search our weather history database for the weather conditions in past years. The results will help you decide how hot, cold, wet, or windy it might be!

Date:

Astronomy

May. 24, 2014 Rise Set
Actual Time 5:41 AM CDT 9:19 PM CDT
Civil Twilight 5:02 AM CDT 9:59 PM CDT
Nautical Twilight 4:08 AM CDT 10:53 PM CDT
Astronomical Twilight 2:54 AM CDT 12:09 AM CDT
Moon 3:34 AM CDT (5/24) 4:58 PM CDT (5/24)
Length of Visible Light 16h 57m
Length of Day
15h 38m
Waning Crescent, 18% of the Moon is Illuminated
May 24
Waning Crescent
May 28
New
Jun 5
First Quarter
Jun 12
Full
Jun 19
Last Quarter

Hourly Weather History & Observations

Time (CDT) Temp. Heat Index Dew Point Humidity Pressure Visibility Wind Dir Wind Speed Gust Speed Precip Events Conditions
12:15 AM 62.6 °F - 53.6 °F 72% 29.93 in 10.0 mi South 12.7 mph - N/A   Clear
12:35 AM 60.8 °F - 53.6 °F 77% 29.92 in 10.0 mi South 11.5 mph - N/A   Clear
12:55 AM 59.0 °F - 53.6 °F 82% 29.92 in 10.0 mi South 11.5 mph - N/A   Clear
1:15 AM 59.0 °F - 53.6 °F 82% 29.91 in 10.0 mi South 12.7 mph - N/A   Clear
1:35 AM 59.0 °F - 53.6 °F 82% 29.91 in 10.0 mi South 12.7 mph - N/A   Clear
1:55 AM 59.0 °F - 53.6 °F 82% 29.91 in 10.0 mi South 13.8 mph - N/A   Clear
2:15 AM 59.0 °F - 53.6 °F 82% 29.91 in 10.0 mi South 13.8 mph - N/A   Clear
2:35 AM 59.0 °F - 53.6 °F 82% 29.91 in 10.0 mi SSW 12.7 mph - N/A   Clear
2:55 AM 59.0 °F - 55.4 °F 88% 29.91 in 10.0 mi South 12.7 mph - N/A   Clear
3:15 AM 59.0 °F - 55.4 °F 88% 29.91 in 10.0 mi South 11.5 mph - N/A   Clear
3:35 AM 57.2 °F - 53.6 °F 88% 29.91 in 10.0 mi South 11.5 mph - N/A   Clear
3:55 AM 57.2 °F - 53.6 °F 88% 29.91 in 10.0 mi SSW 10.4 mph - N/A   Clear
4:15 AM 57.2 °F - 55.4 °F 94% 29.91 in 10.0 mi SSW 10.4 mph - N/A   Clear
4:35 AM 57.2 °F - 53.6 °F 88% 29.90 in 10.0 mi South 9.2 mph - N/A   Clear
4:55 AM 57.2 °F - 53.6 °F 88% 29.91 in 10.0 mi SSW 10.4 mph - N/A   Clear
5:15 AM 55.4 °F - 53.6 °F 94% 29.91 in 10.0 mi SSW 10.4 mph - N/A   Clear
5:35 AM 55.4 °F - 53.6 °F 94% 29.91 in 10.0 mi SSW 11.5 mph - N/A   Clear
5:55 AM 57.2 °F - 53.6 °F 88% 29.91 in 10.0 mi SSW 8.1 mph - N/A   Clear
6:15 AM 57.2 °F - 53.6 °F 88% 29.91 in 10.0 mi SSW 8.1 mph - N/A   Clear
6:35 AM 59.0 °F - 53.6 °F 82% 29.90 in 10.0 mi SSW 9.2 mph - N/A   Clear
6:55 AM 62.6 °F - 55.4 °F 77% 29.91 in 10.0 mi SSW 8.1 mph - N/A   Clear
7:15 AM 62.6 °F - 55.4 °F 77% 29.91 in 10.0 mi SSW 11.5 mph - N/A   Clear
7:35 AM 62.6 °F - 55.4 °F 77% 29.91 in 10.0 mi SSW 10.4 mph - N/A   Clear
7:55 AM 64.4 °F - 55.4 °F 73% 29.91 in 10.0 mi SSW 11.5 mph - N/A   Clear
8:15 AM 66.2 °F - 57.2 °F 73% 29.91 in 10.0 mi SSW 12.7 mph - N/A   Clear
8:35 AM 68.0 °F - 57.2 °F 68% 29.91 in 10.0 mi SSW 15.0 mph - N/A   Clear
8:55 AM 68.0 °F - 57.2 °F 68% 29.91 in 10.0 mi SSW 13.8 mph - N/A   Clear
9:15 AM 71.6 °F - 57.2 °F 60% 29.90 in 10.0 mi SSW 13.8 mph - N/A   Clear
9:35 AM 75.2 °F - 55.4 °F 50% 29.91 in 10.0 mi SSW 17.3 mph - N/A   Clear
9:55 AM 75.2 °F - 53.6 °F 47% 29.90 in 10.0 mi SW 18.4 mph - N/A   Clear
10:15 AM 77.0 °F - 53.6 °F 44% 29.90 in 10.0 mi SW 19.6 mph 25.3 mph N/A   Clear
10:35 AM 78.8 °F - 55.4 °F 44% 29.91 in 10.0 mi SW 24.2 mph - N/A   Clear
10:55 AM 80.6 °F 80.5 °F 55.4 °F 42% 29.91 in 10.0 mi SW 23.0 mph 26.5 mph N/A   Clear
11:15 AM 82.4 °F 81.4 °F 53.6 °F 37% 29.90 in 10.0 mi SW 19.6 mph 27.6 mph N/A   Clear
11:35 AM 84.2 °F 82.8 °F 53.6 °F 35% 29.90 in 10.0 mi SW 19.6 mph 27.6 mph N/A   Clear
11:55 AM 84.2 °F 83.0 °F 55.4 °F 37% 29.90 in 10.0 mi WSW 19.6 mph 26.5 mph N/A   Clear
12:15 PM 86.0 °F 84.5 °F 55.4 °F 35% 29.90 in 10.0 mi WSW 18.4 mph 23.0 mph N/A   Clear
1:15 PM 87.8 °F 86.1 °F 55.4 °F 33% 29.90 in 10.0 mi SW 18.4 mph 27.6 mph N/A   Clear
1:35 PM 86.0 °F 84.5 °F 55.4 °F 35% 29.90 in 10.0 mi SW 21.9 mph 31.1 mph N/A   Clear
1:55 PM 87.8 °F 86.1 °F 55.4 °F 33% 29.90 in 10.0 mi SW 23.0 mph 31.1 mph N/A   Clear
2:15 PM 87.8 °F 85.7 °F 53.6 °F 31% 29.89 in 10.0 mi SW 26.5 mph 33.4 mph N/A   Clear
2:35 PM 87.8 °F 86.1 °F 55.4 °F 33% 29.89 in 10.0 mi SW 23.0 mph 32.2 mph N/A   Scattered Clouds
2:55 PM 87.8 °F 85.7 °F 53.6 °F 31% 29.89 in 10.0 mi SSW 19.6 mph 31.1 mph N/A   Scattered Clouds
3:15 PM 87.8 °F 85.7 °F 53.6 °F 31% 29.88 in 10.0 mi SW 24.2 mph 32.2 mph N/A   Partly Cloudy
3:35 PM 87.8 °F - 51.8 °F 29% 29.87 in 10.0 mi SSW 21.9 mph 29.9 mph N/A   Clear
3:55 PM 89.6 °F 87.3 °F 53.6 °F 29% 29.87 in 10.0 mi SW 23.0 mph 27.6 mph N/A   Clear
4:15 PM 87.8 °F - 51.8 °F 29% 29.86 in 10.0 mi SW 25.3 mph 31.1 mph N/A   Clear
4:35 PM 87.8 °F - 51.8 °F 29% 29.85 in 10.0 mi SW 23.0 mph 31.1 mph N/A   Clear
4:55 PM 86.0 °F 84.2 °F 53.6 °F 33% 29.84 in 10.0 mi SSW 26.5 mph 31.1 mph N/A   Clear
5:15 PM 87.8 °F 85.7 °F 53.6 °F 31% 29.84 in 10.0 mi WSW 26.5 mph 36.8 mph N/A   Clear
5:35 PM 86.0 °F - 50.0 °F 29% 29.84 in 10.0 mi SW 21.9 mph 34.5 mph N/A   Clear
5:55 PM 86.0 °F 84.2 °F 53.6 °F 33% 29.83 in 10.0 mi SW 27.6 mph 32.2 mph N/A   Scattered Clouds
6:15 PM 86.0 °F - 51.8 °F 31% 29.84 in 10.0 mi SW 24.2 mph 33.4 mph N/A   Partly Cloudy
6:35 PM 86.0 °F - 50.0 °F 29% 29.84 in 10.0 mi SW 25.3 mph 34.5 mph N/A   Clear
6:55 PM 86.0 °F - 51.8 °F 31% 29.84 in 10.0 mi SW 20.7 mph 31.1 mph N/A   Clear
7:15 PM 84.2 °F - 50.0 °F 30% 29.85 in 10.0 mi SW 21.9 mph 28.8 mph N/A   Clear
7:35 PM 84.2 °F - 51.8 °F 33% 29.84 in 10.0 mi SW 20.7 mph 26.5 mph N/A   Clear
7:55 PM 84.2 °F - 50.0 °F 30% 29.84 in 10.0 mi SW 21.9 mph 26.5 mph N/A   Clear
8:15 PM 82.4 °F - 51.8 °F 35% 29.84 in 10.0 mi SW 19.6 mph 26.5 mph N/A   Clear
8:35 PM 80.6 °F 80.3 °F 53.6 °F 39% 29.84 in 10.0 mi SW 16.1 mph - N/A   Clear
8:55 PM 77.0 °F - 53.6 °F 44% 29.85 in 10.0 mi SW 11.5 mph - N/A   Clear
9:15 PM 75.2 °F - 53.6 °F 47% 29.86 in 10.0 mi SW 11.5 mph - N/A   Clear
9:35 PM 73.4 °F - 53.6 °F 50% 29.87 in 10.0 mi SSW 9.2 mph - N/A   Clear
9:55 PM 69.8 °F - 53.6 °F 56% 29.88 in 10.0 mi SSW 10.4 mph - N/A   Clear
10:15 PM 68.0 °F - 53.6 °F 60% 29.88 in 10.0 mi South 9.2 mph - N/A   Clear
10:35 PM 66.2 °F - 51.8 °F 60% 29.88 in 8.0 mi South 8.1 mph - N/A   Clear
10:55 PM 66.2 °F - 53.6 °F 64% 29.88 in 10.0 mi SSE 9.2 mph - N/A   Clear
11:15 PM 66.2 °F - 55.4 °F 68% 29.88 in 10.0 mi South 9.2 mph - N/A   Clear
11:35 PM 66.2 °F - 55.4 °F 68% 29.89 in 10.0 mi South 10.4 mph - N/A   Clear